Time;durP1;ratioP1;P1;durP2;ratioP2;P2;SDS_P1;SDS_P2;PMS_P1;PMS_P2;Temp;Humidity;BMP_temperature;BMP_pressure;BME280_temperature;BME280_humidity;BME280_pressure;Samples;Min_cycle;Max_cycle;Signal;HPM_P1;HPM_P2
2021/01/15 00:01:02;;;;;;;3.03;1.95;;;-1.10;99.90;;;;;;4961907;28;20132;-64
2021/01/15 00:03:32;;;;;;;3.20;2.55;;;-1.10;99.90;;;;;;4961520;28;20248;-66
2021/01/15 00:06:05;;;;;;;11.55;5.28;;;-1.20;99.90;;;;;;4963198;28;20219;-66
2021/01/15 00:08:37;;;;;;;4.32;2.58;;;-1.20;99.90;;;;;;4961822;28;20502;-64
2021/01/15 00:11:05;;;;;;;6.25;2.10;;;-1.20;99.90;;;;;;4962802;28;20105;-69
2021/01/15 00:13:32;;;;;;;4.70;2.67;;;-1.20;99.90;;;;;;4961245;28;20081;-65
2021/01/15 00:15:58;;;;;;;4.72;2.88;;;-1.20;99.90;;;;;;4963370;28;20046;-66
2021/01/15 00:18:25;;;;;;;5.53;2.85;;;-1.20;99.90;;;;;;4962876;28;20322;-67
2021/01/15 00:20:52;;;;;;;3.95;2.97;;;-1.20;99.90;;;;;;4963037;28;20046;-66
2021/01/15 00:23:20;;;;;;;10.55;4.05;;;-1.30;99.90;;;;;;4961610;28;20507;-66
2021/01/15 00:25:47;;;;;;;6.72;4.13;;;-1.20;99.90;;;;;;4960536;28;20057;-68
2021/01/15 00:28:13;;;;;;;8.40;3.35;;;-1.30;99.90;;;;;;4967249;28;20128;-64
2021/01/15 00:30:40;;;;;;;4.35;3.55;;;-1.30;99.90;;;;;;4961916;28;20054;-65
2021/01/15 00:33:06;;;;;;;6.30;3.90;;;-1.30;99.90;;;;;;4959322;28;20125;-66
2021/01/15 00:35:33;;;;;;;8.65;5.38;;;-1.40;99.90;;;;;;4961349;28;20047;-65
2021/01/15 00:37:59;;;;;;;9.13;4.20;;;-1.60;99.90;;;;;;4961111;28;20159;-65
2021/01/15 00:40:26;;;;;;;6.05;3.88;;;-1.80;99.90;;;;;;4962639;28;20396;-65
2021/01/15 00:42:52;;;;;;;8.27;5.25;;;-1.90;99.90;;;;;;4962000;28;20039;-67
2021/01/15 00:45:19;;;;;;;8.90;4.88;;;-1.90;99.90;;;;;;4971422;28;20046;-65
2021/01/15 00:47:46;;;;;;;8.10;5.38;;;-1.90;99.90;;;;;;4959458;28;20097;-66
2021/01/15 00:50:13;;;;;;;6.47;4.60;;;-2.00;99.90;;;;;;4961679;28;20051;-69
2021/01/15 00:52:41;;;;;;;12.70;5.78;;;-1.90;99.90;;;;;;4960068;28;20055;-64
2021/01/15 00:55:09;;;;;;;7.75;5.30;;;-2.00;99.90;;;;;;4960447;28;20821;-66
2021/01/15 00:57:38;;;;;;;10.45;7.05;;;-2.00;99.90;;;;;;4957564;28;20135;-69
2021/01/15 01:00:08;;;;;;;10.52;6.60;;;-2.00;99.90;;;;;;4961694;28;20043;-66
2021/01/15 01:02:49;;;;;;;15.65;8.60;;;-2.00;99.90;;;;;;4958866;28;20523;-67
2021/01/15 01:05:20;;;;;;;14.27;5.82;;;-2.00;99.90;;;;;;4959492;28;20065;-65
2021/01/15 01:07:47;;;;;;;6.63;4.50;;;-2.10;99.90;;;;;;4960101;28;20537;-65
2021/01/15 01:10:14;;;;;;;9.05;6.85;;;-2.10;99.90;;;;;;4961451;28;20711;-66
2021/01/15 01:12:41;;;;;;;8.82;5.95;;;-2.20;99.90;;;;;;4961677;28;20057;-65
2021/01/15 01:15:12;;;;;;;10.95;5.95;;;-2.20;99.90;;;;;;4962420;28;20086;-65
2021/01/15 01:17:39;;;;;;;10.45;6.20;;;-2.20;99.90;;;;;;4960039;28;20039;-65
2021/01/15 01:20:08;;;;;;;11.07;7.45;;;-2.20;99.90;;;;;;4962040;28;20062;-65
2021/01/15 01:22:34;;;;;;;12.60;5.35;;;-2.20;99.90;;;;;;4961409;28;20192;-65
2021/01/15 01:25:01;;;;;;;13.55;5.93;;;-2.20;99.90;;;;;;4957700;28;20046;-67
2021/01/15 01:27:27;;;;;;;9.40;5.90;;;-2.10;99.90;;;;;;4960111;28;20073;-66
2021/01/15 01:29:54;;;;;;;10.55;6.72;;;-2.10;99.90;;;;;;4962438;28;20431;-65
2021/01/15 01:32:20;;;;;;;7.75;5.45;;;-2.20;99.90;;;;;;4960654;28;20079;-65
2021/01/15 01:34:47;;;;;;;8.95;5.70;;;-2.20;99.90;;;;;;4961505;28;20061;-65
2021/01/15 01:37:13;;;;;;;10.05;6.72;;;-2.10;99.90;;;;;;4959722;28;20145;-65
2021/01/15 01:39:40;;;;;;;9.88;6.40;;;-2.10;99.90;;;;;;4961736;28;20710;-66
2021/01/15 01:42:06;;;;;;;8.00;5.63;;;-2.20;99.90;;;;;;4962209;28;20106;-65
2021/01/15 01:44:33;;;;;;;11.85;6.22;;;-2.20;99.90;;;;;;4961796;28;20062;-67
2021/01/15 01:46:59;;;;;;;12.00;5.97;;;-2.20;99.90;;;;;;4961231;28;20106;-68
2021/01/15 01:49:26;;;;;;;9.23;6.25;;;-2.20;99.90;;;;;;4960746;28;20086;-67
2021/01/15 01:51:55;;;;;;;10.73;7.90;;;-2.20;99.90;;;;;;4961480;28;20120;-67
2021/01/15 01:54:22;;;;;;;12.07;7.22;;;-2.20;99.90;;;;;;4961146;28;20166;-69
2021/01/15 01:56:48;;;;;;;11.43;7.18;;;-2.30;99.90;;;;;;4961621;28;20114;-66
2021/01/15 01:59:15;;;;;;;13.68;7.90;;;-2.30;99.90;;;;;;4960026;28;20054;-66
2021/01/15 02:01:41;;;;;;;11.23;8.13;;;-2.30;99.90;;;;;;4961879;28;20081;-68
2021/01/15 02:04:08;;;;;;;13.20;7.05;;;-2.30;99.90;;;;;;4960839;28;20574;-67
2021/01/15 02:06:40;;;;;;;17.30;8.00;;;-2.30;99.90;;;;;;4958550;28;20078;-66
2021/01/15 02:09:10;;;;;;;16.58;10.20;;;-2.30;99.90;;;;;;4961227;28;20073;-66
2021/01/15 02:11:57;;;;;;;;;;;-2.30;99.90;;;;;;4961099;28;20391;-66
2021/01/15 02:14:27;;;;;;;14.35;7.57;;;-2.40;99.90;;;;;;4960893;28;19981;-64
2021/01/15 02:16:55;;;;;;;11.63;7.80;;;-2.40;99.90;;;;;;4961014;28;20094;-65
2021/01/15 02:19:51;;;;;;;14.57;9.10;;;-2.40;99.90;;;;;;4955128;28;20058;-66
2021/01/15 02:22:26;;;;;;;17.65;7.93;;;-2.40;99.90;;;;;;4956998;28;20082;-65
2021/01/15 02:24:59;;;;;;;12.73;7.95;;;-2.50;99.90;;;;;;4964389;28;20378;-65
2021/01/15 02:28:06;;;;;;;19.20;10.27;;;-2.40;99.90;;;;;;4962884;28;20126;-65
2021/01/15 02:30:40;;;;;;;15.50;8.13;;;-2.50;99.90;;;;;;4964826;28;20057;-65
2021/01/15 02:33:26;;;;;;;15.45;7.68;;;-2.50;99.90;;;;;;4965058;28;20530;-64
2021/01/15 02:36:06;;;;;;;13.40;7.47;;;-2.50;99.90;;;;;;4961609;28;20050;-64
2021/01/15 02:39:03;;;;;;;18.23;8.80;;;-2.50;99.90;;;;;;4962957;28;20043;-65
2021/01/15 02:41:30;;;;;;;12.63;7.90;;;-2.50;99.90;;;;;;4960621;28;20102;-68
2021/01/15 02:44:05;;;;;;;14.70;9.17;;;-2.50;99.90;;;;;;4963115;28;20047;-64
2021/01/15 02:46:54;;;;;;;17.03;8.90;;;-2.60;99.90;;;;;;4964767;28;20050;-65
2021/01/15 02:49:21;;;;;;;15.52;8.60;;;-2.60;99.90;;;;;;4958387;28;20047;-64
2021/01/15 02:51:48;;;;;;;16.43;7.90;;;-2.60;99.90;;;;;;4964320;28;20169;-65
2021/01/15 02:54:14;;;;;;;13.38;8.38;;;-2.60;99.90;;;;;;4964366;28;20565;-69
2021/01/15 02:56:41;;;;;;;16.93;8.50;;;-2.60;99.90;;;;;;4963366;28;20538;-66
2021/01/15 02:59:08;;;;;;;14.53;8.27;;;-2.60;99.90;;;;;;4962143;28;20054;-65
2021/01/15 03:02:12;;;;;;;15.57;8.80;;;-2.60;99.90;;;;;;4957138;28;20145;-67
2021/01/15 03:04:59;;;;;;;15.83;9.10;;;-2.70;99.90;;;;;;4958269;28;20063;-65
2021/01/15 03:07:26;;;;;;;16.50;7.77;;;-2.70;99.90;;;;;;4958934;28;20058;-69
2021/01/15 03:09:56;;;;;;;14.60;7.50;;;-2.70;99.90;;;;;;4963703;28;20078;-65
2021/01/15 03:12:25;;;;;;;16.30;9.43;;;-2.70;99.90;;;;;;4963733;28;20132;-66
2021/01/15 03:15:13;;;;;;;19.23;8.75;;;-2.70;99.90;;;;;;4963215;28;20148;-65
2021/01/15 03:17:46;;;;;;;12.93;7.97;;;-2.70;99.90;;;;;;4962422;28;20050;-64
2021/01/15 03:20:14;;;;;;;14.50;7.57;;;-2.70;99.90;;;;;;4965504;28;20051;-67
2021/01/15 03:22:44;;;;;;;13.60;7.88;;;-2.80;99.90;;;;;;4962354;28;20053;-66
2021/01/15 03:25:14;;;;;;;;;;;-2.80;99.90;;;;;;4966065;28;20491;-66
2021/01/15 03:27:52;;;;;;;17.75;8.00;;;-2.80;99.90;;;;;;4961106;28;19926;-65
2021/01/15 03:30:24;;;;;;;11.07;6.93;;;-2.80;99.90;;;;;;4962873;28;20074;-65
2021/01/15 03:32:52;;;;;;;14.30;7.80;;;-2.80;99.90;;;;;;4962880;28;20142;-66
2021/01/15 03:35:22;;;;;;;10.03;6.37;;;-2.80;99.90;;;;;;4962437;28;20054;-65
2021/01/15 03:38:00;;;;;;;15.88;7.38;;;-2.90;99.90;;;;;;4962986;28;20046;-67
2021/01/15 03:40:38;;;;;;;11.60;7.83;;;-2.90;99.90;;;;;;4962554;28;20118;-68
2021/01/15 03:43:19;;;;;;;13.93;7.63;;;-2.90;99.90;;;;;;4963559;28;20459;-66
2021/01/15 03:45:47;;;;;;;9.60;6.43;;;-2.90;99.90;;;;;;4958936;28;20055;-66
2021/01/15 03:48:15;;;;;;;12.20;6.87;;;-2.90;99.90;;;;;;4961984;28;20568;-65
2021/01/15 03:50:43;;;;;;;12.63;6.68;;;-3.00;99.90;;;;;;4962782;28;20141;-64
2021/01/15 03:53:12;;;;;;;14.32;7.90;;;-2.90;99.90;;;;;;4962599;28;20066;-68
2021/01/15 03:55:39;;;;;;;9.35;6.90;;;-2.90;99.90;;;;;;4962284;28;20051;-65
2021/01/15 03:58:05;;;;;;;14.17;8.67;;;-3.00;99.90;;;;;;4962324;28;20157;-67
2021/01/15 04:00:32;;;;;;;11.50;5.95;;;-3.00;99.90;;;;;;4962817;28;20054;-65
2021/01/15 04:03:04;;;;;;;12.23;6.33;;;-3.00;99.90;;;;;;4962529;28;20059;-64
2021/01/15 04:05:32;;;;;;;10.37;6.77;;;-3.00;99.90;;;;;;4959955;28;20197;-65
2021/01/15 04:07:59;;;;;;;7.53;4.00;;;-3.00;99.90;;;;;;4961866;28;20515;-64
2021/01/15 04:10:25;;;;;;;8.80;5.90;;;-2.90;99.90;;;;;;4962426;28;20070;-64
2021/01/15 04:12:51;;;;;;;8.98;5.20;;;-2.90;99.90;;;;;;4962203;28;20050;-64
2021/01/15 04:15:18;;;;;;;14.87;5.17;;;-2.80;99.90;;;;;;4961479;28;20050;-67
2021/01/15 04:17:45;;;;;;;8.00;5.30;;;-2.90;99.90;;;;;;4963059;28;20055;-68
2021/01/15 04:20:14;;;;;;;8.23;4.97;;;-2.90;99.90;;;;;;4959571;28;20573;-65
2021/01/15 04:22:45;;;;;;;8.73;3.50;;;-2.90;99.90;;;;;;4962364;28;20141;-65
2021/01/15 04:25:13;;;;;;;6.57;3.80;;;-2.90;99.90;;;;;;4963307;28;20058;-64
2021/01/15 04:27:40;;;;;;;8.47;4.53;;;-2.80;99.90;;;;;;4962272;28;20084;-67
2021/01/15 04:30:09;;;;;;;8.00;4.55;;;-2.80;99.90;;;;;;4962391;28;20121;-64
2021/01/15 04:32:42;;;;;;;6.82;4.32;;;-2.80;99.90;;;;;;4962117;28;20059;-68
2021/01/15 04:35:09;;;;;;;9.10;4.43;;;-2.90;99.90;;;;;;4960828;28;20043;-68
2021/01/15 04:37:35;;;;;;;9.03;4.87;;;-2.90;99.90;;;;;;4961440;28;20050;-68
2021/01/15 04:40:03;;;;;;;7.93;4.18;;;-2.90;99.90;;;;;;4962208;28;20046;-64
2021/01/15 04:42:32;;;;;;;6.40;3.57;;;-3.00;99.90;;;;;;4963358;28;20070;-68
2021/01/15 04:44:59;;;;;;;6.63;3.70;;;-3.00;99.90;;;;;;4961938;28;20046;-66
2021/01/15 04:47:26;;;;;;;8.97;4.17;;;-3.00;99.90;;;;;;4960730;28;20526;-67
2021/01/15 04:49:53;;;;;;;9.57;3.83;;;-3.00;99.90;;;;;;4962367;28;20054;-67
2021/01/15 04:52:20;;;;;;;6.57;3.55;;;-3.00;99.90;;;;;;4960950;28;20830;-66
2021/01/15 04:54:53;;;;;;;8.15;4.80;;;-3.00;99.90;;;;;;4963124;28;20113;-65
2021/01/15 04:57:20;;;;;;;7.63;4.10;;;-3.00;99.90;;;;;;4960411;28;21169;-67
2021/01/15 04:59:48;;;;;;;5.05;3.65;;;-3.00;99.90;;;;;;4961737;28;20046;-65
2021/01/15 05:02:19;;;;;;;3.63;2.50;;;-3.00;99.90;;;;;;4960200;28;20821;-65
2021/01/15 05:04:46;;;;;;;4.00;3.10;;;-3.00;99.90;;;;;;4960090;28;20113;-65
2021/01/15 05:07:14;;;;;;;5.68;3.67;;;-3.00;99.90;;;;;;4956968;28;20047;-65
2021/01/15 05:09:45;;;;;;;6.03;4.13;;;-3.00;99.90;;;;;;4960516;28;20054;-65
2021/01/15 05:12:17;;;;;;;7.83;3.73;;;-3.00;99.90;;;;;;4958908;28;20059;-64
2021/01/15 05:14:48;;;;;;;6.03;3.60;;;-3.00;99.90;;;;;;4961163;28;20545;-66
2021/01/15 05:17:16;;;;;;;7.17;4.20;;;-3.10;99.90;;;;;;4961504;28;20529;-66
2021/01/15 05:19:44;;;;;;;10.73;5.20;;;-3.10;99.90;;;;;;4962542;28;20101;-65
2021/01/15 05:22:11;;;;;;;5.73;3.87;;;-3.10;99.90;;;;;;4961666;28;20063;-66
2021/01/15 05:24:38;;;;;;;5.40;3.63;;;-3.10;99.90;;;;;;4964120;28;20474;-67
2021/01/15 05:30:18;;;;;;;6.53;4.37;;;-3.20;99.90;;;;;;4960294;28;20057;-66
2021/01/15 05:32:45;;;;;;;12.40;4.83;;;-3.20;99.90;;;;;;4959768;28;20058;-67
2021/01/15 05:35:13;;;;;;;11.53;4.93;;;-3.20;99.90;;;;;;4962885;28;20188;-65
2021/01/15 05:37:40;;;;;;;6.13;4.30;;;-3.20;99.90;;;;;;4960365;28;20117;-65
2021/01/15 05:40:07;;;;;;;9.10;4.37;;;-3.20;99.90;;;;;;4962183;28;20069;-64
2021/01/15 05:42:49;;;;;;;6.23;3.87;;;-3.20;99.90;;;;;;4961741;28;20053;-66
2021/01/15 05:45:19;;;;;;;8.30;3.43;;;-3.20;99.90;;;;;;4960589;28;20141;-65
2021/01/15 05:47:47;;;;;;;8.20;4.47;;;-3.30;99.90;;;;;;4961429;28;20055;-64
2021/01/15 05:50:15;;;;;;;5.53;4.03;;;-3.20;99.90;;;;;;4961333;28;20427;-64
2021/01/15 05:52:58;;;;;;;7.57;5.20;;;-3.30;99.90;;;;;;4960908;28;20498;-64
2021/01/15 05:55:25;;;;;;;5.60;3.63;;;-3.20;99.90;;;;;;4960777;28;20061;-65
2021/01/15 05:57:52;;;;;;;6.20;3.43;;;-3.20;99.90;;;;;;4963882;28;20671;-65
2021/01/15 06:00:25;;;;;;;8.00;4.13;;;-3.20;99.90;;;;;;4965908;28;20154;-69
2021/01/15 06:03:05;;;;;;;8.53;3.53;;;-3.30;99.90;;;;;;4965311;28;20046;-64
2021/01/15 06:05:34;;;;;;;6.93;3.88;;;-3.30;99.90;;;;;;4963283;28;20047;-65
2021/01/15 06:08:01;;;;;;;8.17;5.23;;;-3.30;99.90;;;;;;4964308;28;20141;-66
2021/01/15 06:10:39;;;;;;;5.70;3.13;;;-3.30;99.90;;;;;;4965519;28;20430;-67
2021/01/15 06:13:06;;;;;;;6.77;3.93;;;-3.20;99.90;;;;;;4964997;28;20057;-66
2021/01/15 06:15:48;;;;;;;5.60;4.07;;;-3.30;99.90;;;;;;4964388;28;20117;-66
2021/01/15 06:18:18;;;;;;;7.97;4.37;;;-3.30;99.90;;;;;;4962632;28;20058;-65
2021/01/15 06:20:45;;;;;;;5.77;3.87;;;-3.20;99.90;;;;;;4964563;28;20043;-67
2021/01/15 06:23:13;;;;;;;4.13;3.00;;;-3.20;99.90;;;;;;4963602;28;20069;-65
2021/01/15 06:25:57;;;;;;;5.47;3.80;;;-3.20;99.90;;;;;;4963434;28;20051;-68
2021/01/15 06:28:33;;;;;;;5.43;3.83;;;-3.10;99.90;;;;;;4965372;28;20560;-66
2021/01/15 06:31:03;;;;;;;8.40;3.37;;;-3.10;99.90;;;;;;4964609;28;20051;-66
2021/01/15 06:33:30;;;;;;;8.90;4.25;;;-3.10;99.90;;;;;;4961657;28;20165;-64
2021/01/15 06:35:56;;;;;;;7.57;3.53;;;-3.00;99.90;;;;;;4964973;28;20109;-66
2021/01/15 06:38:29;;;;;;;6.10;4.03;;;-3.10;99.90;;;;;;4958762;28;20057;-64
2021/01/15 06:40:57;;;;;;;9.57;3.37;;;-3.10;99.90;;;;;;4963711;28;20150;-64
2021/01/15 06:43:25;;;;;;;7.20;3.70;;;-3.10;99.90;;;;;;4961754;28;20042;-68
2021/01/15 06:45:54;;;;;;;4.90;3.33;;;-3.10;99.90;;;;;;4966482;28;20041;-65
2021/01/15 06:48:23;;;;;;;6.55;3.72;;;-3.10;99.90;;;;;;4961177;28;20138;-66
2021/01/15 06:50:51;;;;;;;8.07;4.67;;;-3.10;99.90;;;;;;4964974;28;20066;-65
2021/01/15 06:53:23;;;;;;;8.77;5.53;;;-3.10;99.90;;;;;;4960338;28;20460;-65
2021/01/15 06:55:55;;;;;;;11.17;4.67;;;-3.10;99.90;;;;;;4964766;28;20059;-63
2021/01/15 06:58:24;;;;;;;5.93;4.20;;;-3.10;99.90;;;;;;4962865;28;20053;-63
2021/01/15 07:00:59;;;;;;;11.13;6.13;;;-3.10;99.90;;;;;;4963589;28;20140;-66
2021/01/15 07:04:04;;;;;;;9.10;3.53;;;-3.10;99.90;;;;;;4959420;28;20419;-64
2021/01/15 07:06:31;;;;;;;11.00;4.40;;;-3.10;99.90;;;;;;4955593;28;20091;-66
2021/01/15 07:09:00;;;;;;;6.13;3.67;;;-3.10;99.90;;;;;;4963135;28;20110;-63
2021/01/15 07:11:28;;;;;;;7.10;3.67;;;-3.10;99.90;;;;;;4961922;28;20716;-66
2021/01/15 07:13:59;;;;;;;9.40;3.55;;;-3.00;99.90;;;;;;4963181;28;20138;-67
2021/01/15 07:16:32;;;;;;;6.70;3.47;;;-2.90;99.90;;;;;;4963025;28;20050;-63
2021/01/15 07:19:28;;;;;;;4.53;3.40;;;-2.90;99.90;;;;;;4961684;28;20066;-64
2021/01/15 07:22:01;;;;;;;5.43;4.10;;;-2.90;99.90;;;;;;4959668;28;20491;-64
2021/01/15 07:24:30;;;;;;;5.37;3.57;;;-2.90;99.90;;;;;;4962674;28;20179;-63
2021/01/15 07:26:56;;;;;;;9.27;3.77;;;-2.90;99.90;;;;;;4964198;28;20062;-65
2021/01/15 07:29:25;;;;;;;5.50;3.80;;;-2.90;99.90;;;;;;4964855;28;20054;-64
2021/01/15 07:32:19;;;;;;;9.00;3.93;;;-3.00;99.90;;;;;;4945799;28;20589;-63
2021/01/15 07:34:51;;;;;;;9.60;4.30;;;-3.00;99.90;;;;;;4955455;28;21566;-66
2021/01/15 07:37:20;;;;;;;7.83;4.30;;;-3.00;99.90;;;;;;4953786;28;21009;-63
2021/01/15 07:40:16;;;;;;;5.93;3.70;;;-3.10;99.90;;;;;;4958140;28;20050;-63
2021/01/15 07:42:54;;;;;;;9.85;3.55;;;-3.10;99.90;;;;;;4959515;28;20670;-66
2021/01/15 07:45:27;;;;;;;6.10;3.87;;;-3.10;99.90;;;;;;4958298;28;20069;-65
2021/01/15 07:47:55;;;;;;;6.13;3.90;;;-3.10;99.90;;;;;;4955108;28;20047;-63
2021/01/15 07:50:28;;;;;;;9.63;3.30;;;-3.20;99.90;;;;;;4958902;28;20510;-64
2021/01/15 07:53:07;;;;;;;7.10;4.43;;;-3.20;99.90;;;;;;4957035;28;20438;-63
2021/01/15 07:55:57;;;;;;;8.13;3.90;;;-3.20;99.90;;;;;;4953006;28;20287;-65
2021/01/15 07:58:37;;;;;;;9.88;3.10;;;-3.10;99.90;;;;;;4958759;28;20114;-66
2021/01/15 08:01:12;;;;;;;6.27;3.20;;;-3.10;99.90;;;;;;4961946;28;20074;-63
2021/01/15 08:03:52;;;;;;;7.47;4.10;;;-3.00;99.90;;;;;;4959077;28;20121;-64
2021/01/15 08:06:20;;;;;;;7.20;4.00;;;-3.00;99.90;;;;;;4958875;28;20061;-64
2021/01/15 08:09:04;;;;;;;8.67;4.07;;;-3.00;99.90;;;;;;4958798;28;20046;-63
2021/01/15 08:11:35;;;;;;;8.87;3.47;;;-3.00;99.90;;;;;;4959630;28;20039;-63
2021/01/15 08:14:21;;;;;;;11.20;4.20;;;-3.00;99.90;;;;;;4959250;28;20074;-63
2021/01/15 08:16:48;;;;;;;10.07;3.93;;;-3.00;99.90;;;;;;4959761;28;20051;-63
2021/01/15 08:19:22;;;;;;;9.13;2.80;;;-3.00;99.90;;;;;;4958569;28;20411;-64
2021/01/15 08:21:50;;;;;;;6.70;4.10;;;-3.00;99.90;;;;;;4960533;28;20147;-64
2021/01/15 08:24:19;;;;;;;7.67;3.83;;;-3.00;99.90;;;;;;4960343;28;20043;-65
2021/01/15 08:26:48;;;;;;;14.85;3.20;;;-3.00;99.90;;;;;;4958140;28;20054;-65
2021/01/15 08:29:15;;;;;;;5.67;4.50;;;-3.00;99.90;;;;;;4957898;28;20073;-64
2021/01/15 08:31:42;;;;;;;4.33;2.93;;;-2.90;99.90;;;;;;4961145;28;20049;-67
2021/01/15 08:34:14;;;;;;;6.57;3.53;;;-2.90;99.90;;;;;;4960175;28;20395;-64
2021/01/15 08:36:42;;;;;;;8.47;3.30;;;-3.00;99.90;;;;;;4959826;28;20057;-66
2021/01/15 08:39:09;;;;;;;6.20;3.40;;;-3.00;99.90;;;;;;4960669;28;20134;-65
2021/01/15 08:41:36;;;;;;;7.13;3.37;;;-3.00;99.90;;;;;;4959792;28;20120;-65
2021/01/15 08:44:04;;;;;;;4.85;3.47;;;-3.00;99.90;;;;;;4960556;28;20608;-66
2021/01/15 08:46:32;;;;;;;6.10;3.70;;;-2.90;99.90;;;;;;4961058;28;20069;-65
2021/01/15 08:48:59;;;;;;;6.03;3.17;;;-2.90;99.90;;;;;;4957700;28;20740;-65
2021/01/15 08:51:32;;;;;;;6.87;3.27;;;-2.90;99.90;;;;;;4960951;28;20047;-65
2021/01/15 08:54:22;;;;;;;3.33;2.30;;;-2.80;99.90;;;;;;4959336;28;20054;-64
2021/01/15 08:56:50;;;;;;;8.30;3.90;;;-2.70;99.90;;;;;;4958944;28;20460;-67
2021/01/15 08:59:27;;;;;;;5.72;3.03;;;-2.70;99.90;;;;;;4957091;28;20786;-64
2021/01/15 09:02:02;;;;;;;5.80;2.73;;;-2.60;99.90;;;;;;4960512;28;20046;-66
2021/01/15 09:04:30;;;;;;;9.07;2.75;;;-2.60;99.90;;;;;;4971590;28;20105;-65
2021/01/15 09:07:00;;;;;;;4.07;3.70;;;-2.60;99.90;;;;;;4960062;28;20046;-64
2021/01/15 09:09:30;;;;;;;5.22;3.10;;;-2.60;99.90;;;;;;4956129;28;20595;-64
2021/01/15 09:12:05;;;;;;;4.40;2.80;;;-2.50;99.90;;;;;;4959390;28;20039;-64
2021/01/15 09:14:35;;;;;;;5.93;2.92;;;-2.40;99.90;;;;;;4960176;28;20343;-65
2021/01/15 09:17:03;;;;;;;5.85;2.65;;;-2.30;99.90;;;;;;4959018;28;20043;-64
2021/01/15 09:19:30;;;;;;;7.60;2.95;;;-2.20;99.90;;;;;;4957844;28;20051;-64
2021/01/15 09:22:00;;;;;;;5.80;2.33;;;-2.20;99.90;;;;;;4961096;28;20532;-65
2021/01/15 09:24:29;;;;;;;2.50;2.05;;;-2.20;99.90;;;;;;4956693;28;20070;-65
2021/01/15 09:27:00;;;;;;;5.30;2.53;;;-2.20;99.90;;;;;;4956926;28;20074;-65
2021/01/15 09:29:27;;;;;;;7.50;2.22;;;-2.20;99.90;;;;;;4959359;28;20062;-65
2021/01/15 09:31:54;;;;;;;5.85;2.17;;;-2.20;99.90;;;;;;4959919;28;20058;-67
2021/01/15 09:34:22;;;;;;;5.43;2.65;;;-2.10;99.90;;;;;;4960135;28;20268;-66
2021/01/15 09:36:50;;;;;;;4.28;2.10;;;-2.00;99.90;;;;;;4963795;28;20065;-68
2021/01/15 09:39:23;;;;;;;3.08;2.00;;;-2.00;99.90;;;;;;4959999;28;20190;-66
2021/01/15 09:41:52;;;;;;;5.32;2.42;;;-1.90;99.90;;;;;;4962702;28;20050;-65
2021/01/15 09:44:20;;;;;;;4.35;1.75;;;-1.90;99.90;;;;;;4961183;28;20046;-65
2021/01/15 09:46:50;;;;;;;4.93;2.38;;;-1.90;99.90;;;;;;4962796;28;20050;-68
2021/01/15 09:49:21;;;;;;;4.85;1.60;;;-1.90;99.90;;;;;;4962501;28;20047;-65
2021/01/15 09:51:49;;;;;;;3.17;1.75;;;-1.80;99.90;;;;;;4963000;28;20045;-66
2021/01/15 09:54:16;;;;;;;6.65;2.55;;;-1.80;99.90;;;;;;4962234;28;20039;-65
2021/01/15 09:56:43;;;;;;;2.22;1.70;;;-1.90;99.90;;;;;;4962209;28;20039;-66
2021/01/15 09:59:12;;;;;;;3.25;1.67;;;-1.90;99.90;;;;;;4960911;28;20054;-65
2021/01/15 10:01:39;;;;;;;3.28;2.58;;;-1.90;99.90;;;;;;4973895;28;20065;-64
2021/01/15 10:04:06;;;;;;;3.92;2.10;;;-1.90;99.90;;;;;;4963620;28;20039;-68
2021/01/15 10:06:37;;;;;;;4.50;2.13;;;-1.90;99.90;;;;;;4962938;28;20410;-65
2021/01/15 10:09:05;;;;;;;7.95;3.45;;;-1.90;99.90;;;;;;4959095;28;20140;-66
2021/01/15 10:11:34;;;;;;;3.58;2.17;;;-2.00;99.90;;;;;;4958557;28;20086;-66
2021/01/15 10:14:09;;;;;;;3.00;2.22;;;-2.00;99.90;;;;;;4960627;28;20043;-68
2021/01/15 10:16:38;;;;;;;6.05;1.90;;;-2.00;99.90;;;;;;4962338;28;20050;-67
2021/01/15 10:19:05;;;;;;;5.03;2.63;;;-2.00;99.90;;;;;;4961479;28;20043;-65
2021/01/15 10:21:32;;;;;;;4.68;2.15;;;-2.00;99.90;;;;;;4958125;28;20083;-64
2021/01/15 10:24:00;;;;;;;3.58;1.88;;;-1.90;99.90;;;;;;4959097;28;20054;-66
2021/01/15 10:26:31;;;;;;;2.97;1.52;;;-1.90;99.90;;;;;;4961884;28;20061;-65
2021/01/15 10:29:02;;;;;;;4.00;1.90;;;-1.90;99.90;;;;;;4963705;28;20130;-64
2021/01/15 10:31:34;;;;;;;3.83;2.63;;;-1.80;99.90;;;;;;4961379;28;20046;-67
2021/01/15 10:34:02;;;;;;;2.92;2.25;;;-1.80;99.90;;;;;;4962576;28;20058;-66
2021/01/15 10:36:29;;;;;;;2.85;1.77;;;-1.80;99.90;;;;;;4963411;28;20483;-65
2021/01/15 10:38:56;;;;;;;2.97;1.90;;;-1.80;99.90;;;;;;4960731;28;20109;-67
2021/01/15 10:41:44;;;;;;;3.70;1.80;;;-1.80;99.90;;;;;;4962054;28;20038;-65
2021/01/15 10:44:12;;;;;;;5.00;2.30;;;-1.90;99.90;;;;;;4958691;28;20051;-69
2021/01/15 10:46:41;;;;;;;6.13;2.58;;;-1.90;99.90;;;;;;4959313;28;20055;-65
2021/01/15 10:49:09;;;;;;;4.15;2.80;;;-1.90;99.90;;;;;;4960859;28;20118;-65
2021/01/15 10:51:40;;;;;;;6.70;2.33;;;-1.90;99.90;;;;;;4960215;28;20050;-67
2021/01/15 10:54:07;;;;;;;4.32;2.20;;;-1.90;99.90;;;;;;4962327;28;20045;-64
2021/01/15 10:56:35;;;;;;;5.30;2.05;;;-2.00;99.90;;;;;;4962191;28;20113;-66
2021/01/15 10:59:02;;;;;;;3.70;2.30;;;-1.90;99.90;;;;;;4960519;28;20054;-66
2021/01/15 11:01:42;;;;;;;5.03;2.35;;;-1.90;99.90;;;;;;4962169;28;20166;-65
2021/01/15 11:04:10;;;;;;;3.83;2.20;;;-1.80;99.90;;;;;;4964947;28;20050;-68
2021/01/15 11:06:37;;;;;;;6.60;1.75;;;-1.80;99.90;;;;;;4965328;28;20371;-66
2021/01/15 11:09:05;;;;;;;6.18;2.33;;;-1.70;99.90;;;;;;4964445;28;20395;-66
2021/01/15 11:11:52;;;;;;;3.17;1.88;;;-1.70;99.90;;;;;;4961554;28;20046;-65
2021/01/15 11:14:19;;;;;;;3.45;2.08;;;-1.70;99.90;;;;;;4965701;28;20049;-64
2021/01/15 11:16:46;;;;;;;3.42;1.70;;;-1.60;99.90;;;;;;4963924;28;20055;-69
2021/01/15 11:19:13;;;;;;;3.85;2.30;;;-1.60;99.90;;;;;;4960473;28;20039;-65
2021/01/15 11:21:40;;;;;;;6.55;2.63;;;-1.60;99.90;;;;;;4961297;28;20114;-67
2021/01/15 11:24:08;;;;;;;4.97;3.50;;;-1.60;99.90;;;;;;4961010;28;20061;-67
2021/01/15 11:26:34;;;;;;;2.35;2.05;;;-1.60;99.90;;;;;;4960823;28;20042;-65
2021/01/15 11:29:03;;;;;;;4.97;3.13;;;-1.60;99.90;;;;;;4964509;28;20053;-65
2021/01/15 11:31:30;;;;;;;6.40;2.25;;;-1.50;99.90;;;;;;4963540;28;20402;-64
2021/01/15 11:33:58;;;;;;;4.18;2.60;;;-1.50;99.90;;;;;;4961768;28;20435;-65
2021/01/15 11:36:31;;;;;;;7.00;3.53;;;-1.50;99.90;;;;;;4953398;28;20534;-64
2021/01/15 11:39:02;;;;;;;8.52;3.00;;;-1.50;99.90;;;;;;4961465;28;20106;-69
2021/01/15 11:41:29;;;;;;;6.15;2.65;;;-1.50;99.90;;;;;;4957919;28;20283;-66
2021/01/15 11:43:55;;;;;;;4.82;2.72;;;-1.60;99.90;;;;;;4958464;28;20554;-66
2021/01/15 11:46:27;;;;;;;2.63;2.17;;;-1.60;99.90;;;;;;4959984;28;20042;-65
2021/01/15 11:48:54;;;;;;;5.20;2.55;;;-1.70;99.90;;;;;;4959802;28;20043;-67
2021/01/15 11:51:21;;;;;;;4.05;3.15;;;-1.70;99.90;;;;;;4961274;28;20054;-67
2021/01/15 11:53:48;;;;;;;9.23;3.78;;;-1.70;99.90;;;;;;4959744;28;20058;-64
2021/01/15 11:56:14;;;;;;;8.10;3.53;;;-1.70;99.90;;;;;;4962689;28;20051;-64
2021/01/15 11:58:40;;;;;;;6.20;2.70;;;-1.70;99.90;;;;;;4959523;28;20057;-66
2021/01/15 12:01:07;;;;;;;7.97;2.90;;;-1.70;99.90;;;;;;4957982;28;20046;-65
2021/01/15 12:03:35;;;;;;;3.75;2.88;;;-1.80;99.90;;;;;;4959470;28;20479;-65
2021/01/15 12:06:02;;;;;;;3.20;2.70;;;-1.70;99.90;;;;;;4963677;28;20062;-64
2021/01/15 12:08:29;;;;;;;3.45;2.90;;;-1.70;99.90;;;;;;4958181;28;20465;-63
2021/01/15 12:10:59;;;;;;;4.18;2.90;;;-1.70;99.90;;;;;;4959909;28;20232;-65
2021/01/15 12:13:26;;;;;;;6.43;3.70;;;-1.70;99.90;;;;;;4961480;28;20054;-66
2021/01/15 12:15:56;;;;;;;10.50;3.10;;;-1.80;99.90;;;;;;4962747;28;20097;-64
2021/01/15 12:18:24;;;;;;;7.28;2.83;;;-1.80;99.90;;;;;;4959977;28;20043;-64
2021/01/15 12:20:55;;;;;;;6.13;2.95;;;-1.80;99.90;;;;;;4959990;28;20121;-66
2021/01/15 12:23:23;;;;;;;6.30;3.35;;;-1.80;99.90;;;;;;4961028;28;20150;-66
2021/01/15 12:25:49;;;;;;;4.13;3.42;;;-1.90;99.90;;;;;;4961879;28;20231;-66
2021/01/15 12:28:18;;;;;;;5.07;3.80;;;-1.90;99.90;;;;;;4959937;28;20074;-64
2021/01/15 12:30:45;;;;;;;3.72;2.65;;;-1.80;99.90;;;;;;4959594;28;20825;-64
2021/01/15 12:33:14;;;;;;;4.38;3.97;;;-1.90;99.90;;;;;;4961675;28;20359;-64
2021/01/15 12:35:42;;;;;;;4.28;3.55;;;-1.90;99.90;;;;;;4958775;28;20047;-67
2021/01/15 12:38:12;;;;;;;8.32;3.55;;;-1.90;99.90;;;;;;4959735;28;20184;-64
2021/01/15 12:40:39;;;;;;;6.18;3.35;;;-2.00;99.90;;;;;;4960897;28;21667;-65
2021/01/15 12:43:07;;;;;;;4.85;3.33;;;-2.00;99.90;;;;;;4958584;28;20046;-65
2021/01/15 12:45:38;;;;;;;6.45;3.38;;;-2.10;99.90;;;;;;4955858;28;20050;-65
2021/01/15 12:48:06;;;;;;;5.28;3.55;;;-2.00;99.90;;;;;;4959048;28;20058;-66
2021/01/15 12:50:32;;;;;;;4.93;3.15;;;-2.00;99.90;;;;;;4960242;28;20046;-64
2021/01/15 12:52:59;;;;;;;7.80;3.08;;;-2.10;99.90;;;;;;4956818;28;20051;-66
2021/01/15 12:55:27;;;;;;;7.93;3.45;;;-2.00;99.90;;;;;;4962578;28;20153;-66
2021/01/15 12:57:58;;;;;;;3.83;3.42;;;-2.00;99.90;;;;;;4961406;28;20039;-65
2021/01/15 13:00:25;;;;;;;3.90;2.97;;;-2.00;99.90;;;;;;4961520;28;20450;-66
2021/01/15 13:02:52;;;;;;;4.43;3.22;;;-2.00;99.90;;;;;;4951567;28;20110;-67
2021/01/15 13:05:19;;;;;;;6.32;3.55;;;-2.00;99.90;;;;;;4958993;28;20054;-64